sensor_id;sensor_type;location;lat;lon;timestamp;temperature;humidity
15455;DHT22;21057;51.024;7.540;2023-05-19T00:01:21;10.50;99.90
15455;DHT22;21057;51.024;7.540;2023-05-19T00:03:52;10.40;99.90
15455;DHT22;21057;51.024;7.540;2023-05-19T00:06:21;10.40;99.90
15455;DHT22;21057;51.024;7.540;2023-05-19T00:08:55;10.40;99.90
15455;DHT22;21057;51.024;7.540;2023-05-19T00:11:22;10.40;99.90
15455;DHT22;21057;51.024;7.540;2023-05-19T00:13:51;10.40;99.90
15455;DHT22;21057;51.024;7.540;2023-05-19T00:16:19;10.40;99.90
15455;DHT22;21057;51.024;7.540;2023-05-19T00:18:46;10.40;99.90
15455;DHT22;21057;51.024;7.540;2023-05-19T00:21:14;10.30;99.90
15455;DHT22;21057;51.024;7.540;2023-05-19T00:23:41;10.20;99.90
15455;DHT22;21057;51.024;7.540;2023-05-19T00:26:08;10.20;99.90
15455;DHT22;21057;51.024;7.540;2023-05-19T00:28:35;10.20;99.90
15455;DHT22;21057;51.024;7.540;2023-05-19T00:31:03;10.10;99.90
15455;DHT22;21057;51.024;7.540;2023-05-19T00:33:30;10.10;99.90
15455;DHT22;21057;51.024;7.540;2023-05-19T00:35:58;10.10;99.90
15455;DHT22;21057;51.024;7.540;2023-05-19T00:38:29;10.10;99.90
15455;DHT22;21057;51.024;7.540;2023-05-19T00:40:57;10.00;99.90
15455;DHT22;21057;51.024;7.540;2023-05-19T00:43:24;10.00;99.90
15455;DHT22;21057;51.024;7.540;2023-05-19T00:45:51;10.00;99.90
15455;DHT22;21057;51.024;7.540;2023-05-19T00:48:17;10.00;99.90
15455;DHT22;21057;51.024;7.540;2023-05-19T00:50:45;10.00;99.90
15455;DHT22;21057;51.024;7.540;2023-05-19T00:53:13;10.00;99.90
15455;DHT22;21057;51.024;7.540;2023-05-19T00:55:45;9.80;99.90
15455;DHT22;21057;51.024;7.540;2023-05-19T00:58:13;9.90;99.90
15455;DHT22;21057;51.024;7.540;2023-05-19T01:00:40;9.90;99.90
15455;DHT22;21057;51.024;7.540;2023-05-19T01:03:07;9.80;99.90
15455;DHT22;21057;51.024;7.540;2023-05-19T01:05:38;9.80;99.90
15455;DHT22;21057;51.024;7.540;2023-05-19T01:08:06;9.80;99.90
15455;DHT22;21057;51.024;7.540;2023-05-19T01:10:32;9.80;99.90
15455;DHT22;21057;51.024;7.540;2023-05-19T01:13:02;9.80;99.90
15455;DHT22;21057;51.024;7.540;2023-05-19T01:15:29;9.80;99.90
15455;DHT22;21057;51.024;7.540;2023-05-19T01:18:03;9.70;99.90
15455;DHT22;21057;51.024;7.540;2023-05-19T01:20:35;9.70;99.90
15455;DHT22;21057;51.024;7.540;2023-05-19T01:23:26;9.70;99.90
15455;DHT22;21057;51.024;7.540;2023-05-19T01:26:10;9.80;99.90
15455;DHT22;21057;51.024;7.540;2023-05-19T01:28:58;9.70;99.90
15455;DHT22;21057;51.024;7.540;2023-05-19T01:31:30;9.70;99.90
15455;DHT22;21057;51.024;7.540;2023-05-19T01:33:58;9.60;99.90
15455;DHT22;21057;51.024;7.540;2023-05-19T01:36:26;9.50;99.90
15455;DHT22;21057;51.024;7.540;2023-05-19T01:38:55;9.50;99.90
15455;DHT22;21057;51.024;7.540;2023-05-19T01:41:23;9.50;99.90
15455;DHT22;21057;51.024;7.540;2023-05-19T01:43:51;9.50;99.90
15455;DHT22;21057;51.024;7.540;2023-05-19T01:46:18;9.50;99.90
15455;DHT22;21057;51.024;7.540;2023-05-19T01:48:48;9.50;99.90
15455;DHT22;21057;51.024;7.540;2023-05-19T01:51:15;9.40;99.90
15455;DHT22;21057;51.024;7.540;2023-05-19T01:53:42;9.50;99.90
15455;DHT22;21057;51.024;7.540;2023-05-19T01:56:12;9.50;99.90
15455;DHT22;21057;51.024;7.540;2023-05-19T01:58:44;9.50;99.90
15455;DHT22;21057;51.024;7.540;2023-05-19T02:01:25;9.60;99.90
15455;DHT22;21057;51.024;7.540;2023-05-19T02:04:12;9.60;99.90
15455;DHT22;21057;51.024;7.540;2023-05-19T02:06:47;9.50;99.90
15455;DHT22;21057;51.024;7.540;2023-05-19T02:09:19;9.40;99.90
15455;DHT22;21057;51.024;7.540;2023-05-19T02:11:53;9.50;99.90
15455;DHT22;21057;51.024;7.540;2023-05-19T02:14:24;9.50;99.90
15455;DHT22;21057;51.024;7.540;2023-05-19T02:16:56;9.40;99.90
15455;DHT22;21057;51.024;7.540;2023-05-19T02:19:30;9.30;99.90
15455;DHT22;21057;51.024;7.540;2023-05-19T02:21:57;9.20;99.90
15455;DHT22;21057;51.024;7.540;2023-05-19T02:24:24;9.20;99.90
15455;DHT22;21057;51.024;7.540;2023-05-19T02:26:51;9.10;99.90
15455;DHT22;21057;51.024;7.540;2023-05-19T02:29:19;9.10;99.90
15455;DHT22;21057;51.024;7.540;2023-05-19T02:31:46;9.10;99.90
15455;DHT22;21057;51.024;7.540;2023-05-19T02:34:13;9.10;99.90
15455;DHT22;21057;51.024;7.540;2023-05-19T02:36:41;9.10;99.90
15455;DHT22;21057;51.024;7.540;2023-05-19T02:39:08;9.20;99.90
15455;DHT22;21057;51.024;7.540;2023-05-19T02:41:36;9.10;99.90
15455;DHT22;21057;51.024;7.540;2023-05-19T02:44:03;9.30;99.90
15455;DHT22;21057;51.024;7.540;2023-05-19T02:46:30;9.30;99.90
15455;DHT22;21057;51.024;7.540;2023-05-19T02:48:57;9.30;99.90
15455;DHT22;21057;51.024;7.540;2023-05-19T02:51:23;9.30;99.90
15455;DHT22;21057;51.024;7.540;2023-05-19T02:53:52;9.30;99.90
15455;DHT22;21057;51.024;7.540;2023-05-19T02:56:18;9.30;99.90
15455;DHT22;21057;51.024;7.540;2023-05-19T02:58:45;9.40;99.90
15455;DHT22;21057;51.024;7.540;2023-05-19T03:01:12;9.40;99.90
15455;DHT22;21057;51.024;7.540;2023-05-19T03:03:39;9.30;99.90
15455;DHT22;21057;51.024;7.540;2023-05-19T03:06:06;9.30;99.90
15455;DHT22;21057;51.024;7.540;2023-05-19T03:08:33;9.20;99.90
15455;DHT22;21057;51.024;7.540;2023-05-19T03:11:02;9.10;99.90
15455;DHT22;21057;51.024;7.540;2023-05-19T03:13:28;9.10;99.90
15455;DHT22;21057;51.024;7.540;2023-05-19T03:15:56;9.00;99.90
15455;DHT22;21057;51.024;7.540;2023-05-19T03:18:24;9.10;99.90
15455;DHT22;21057;51.024;7.540;2023-05-19T03:20:51;9.10;99.90
15455;DHT22;21057;51.024;7.540;2023-05-19T03:23:19;9.10;99.90
15455;DHT22;21057;51.024;7.540;2023-05-19T03:25:46;9.30;99.90
15455;DHT22;21057;51.024;7.540;2023-05-19T03:28:14;9.40;99.90
15455;DHT22;21057;51.024;7.540;2023-05-19T03:30:41;9.40;99.90
15455;DHT22;21057;51.024;7.540;2023-05-19T03:33:08;9.40;99.90
15455;DHT22;21057;51.024;7.540;2023-05-19T03:35:35;9.30;99.90
15455;DHT22;21057;51.024;7.540;2023-05-19T03:38:02;9.40;99.90
15455;DHT22;21057;51.024;7.540;2023-05-19T03:40:29;9.30;99.90
15455;DHT22;21057;51.024;7.540;2023-05-19T03:42:55;9.20;99.90
15455;DHT22;21057;51.024;7.540;2023-05-19T03:45:24;9.10;99.90
15455;DHT22;21057;51.024;7.540;2023-05-19T03:47:51;9.00;99.90
15455;DHT22;21057;51.024;7.540;2023-05-19T03:50:18;8.90;99.90
15455;DHT22;21057;51.024;7.540;2023-05-19T03:52:45;8.90;99.90
15455;DHT22;21057;51.024;7.540;2023-05-19T03:55:13;8.80;99.90
15455;DHT22;21057;51.024;7.540;2023-05-19T03:57:40;8.80;99.90
15455;DHT22;21057;51.024;7.540;2023-05-19T04:00:08;8.90;99.90
15455;DHT22;21057;51.024;7.540;2023-05-19T04:02:38;8.90;99.90
15455;DHT22;21057;51.024;7.540;2023-05-19T04:05:05;8.90;99.90
15455;DHT22;21057;51.024;7.540;2023-05-19T04:07:32;9.00;99.90
15455;DHT22;21057;51.024;7.540;2023-05-19T04:10:02;9.00;99.90
15455;DHT22;21057;51.024;7.540;2023-05-19T04:12:29;9.10;99.90
15455;DHT22;21057;51.024;7.540;2023-05-19T04:14:56;9.10;99.90
15455;DHT22;21057;51.024;7.540;2023-05-19T04:17:23;9.10;99.90
15455;DHT22;21057;51.024;7.540;2023-05-19T04:19:52;9.10;99.90
15455;DHT22;21057;51.024;7.540;2023-05-19T04:22:19;9.10;99.90
15455;DHT22;21057;51.024;7.540;2023-05-19T04:24:46;9.20;99.90
15455;DHT22;21057;51.024;7.540;2023-05-19T04:27:13;9.40;99.90
15455;DHT22;21057;51.024;7.540;2023-05-19T04:29:40;9.50;99.90
15455;DHT22;21057;51.024;7.540;2023-05-19T04:32:07;9.60;99.90
15455;DHT22;21057;51.024;7.540;2023-05-19T04:34:35;9.90;99.90
15455;DHT22;21057;51.024;7.540;2023-05-19T04:37:06;9.90;99.90
15455;DHT22;21057;51.024;7.540;2023-05-19T04:39:34;9.90;99.90
15455;DHT22;21057;51.024;7.540;2023-05-19T04:42:03;10.10;99.90
15455;DHT22;21057;51.024;7.540;2023-05-19T04:44:30;10.20;99.90
15455;DHT22;21057;51.024;7.540;2023-05-19T04:46:58;10.30;99.90
15455;DHT22;21057;51.024;7.540;2023-05-19T04:49:25;10.50;99.90
15455;DHT22;21057;51.024;7.540;2023-05-19T04:51:52;10.70;99.90
15455;DHT22;21057;51.024;7.540;2023-05-19T04:54:20;10.70;99.90
15455;DHT22;21057;51.024;7.540;2023-05-19T04:56:47;10.80;99.90
15455;DHT22;21057;51.024;7.540;2023-05-19T04:59:14;10.80;99.90
15455;DHT22;21057;51.024;7.540;2023-05-19T05:01:40;10.90;99.90
15455;DHT22;21057;51.024;7.540;2023-05-19T05:04:07;11.10;99.90
15455;DHT22;21057;51.024;7.540;2023-05-19T05:06:34;11.10;99.90
15455;DHT22;21057;51.024;7.540;2023-05-19T05:09:03;11.20;99.90
15455;DHT22;21057;51.024;7.540;2023-05-19T05:11:31;11.30;99.90
15455;DHT22;21057;51.024;7.540;2023-05-19T05:13:59;11.40;99.90
15455;DHT22;21057;51.024;7.540;2023-05-19T05:16:26;11.50;99.90
15455;DHT22;21057;51.024;7.540;2023-05-19T05:18:54;11.70;99.90
15455;DHT22;21057;51.024;7.540;2023-05-19T05:21:22;11.70;99.90
15455;DHT22;21057;51.024;7.540;2023-05-19T05:23:49;11.70;99.90
15455;DHT22;21057;51.024;7.540;2023-05-19T05:26:17;11.80;99.90
15455;DHT22;21057;51.024;7.540;2023-05-19T05:28:47;11.90;99.90
15455;DHT22;21057;51.024;7.540;2023-05-19T05:31:14;12.10;99.90
15455;DHT22;21057;51.024;7.540;2023-05-19T05:33:41;12.20;99.90
15455;DHT22;21057;51.024;7.540;2023-05-19T05:36:08;12.30;99.90
15455;DHT22;21057;51.024;7.540;2023-05-19T05:38:35;12.30;99.90
15455;DHT22;21057;51.024;7.540;2023-05-19T05:41:02;12.30;99.90
15455;DHT22;21057;51.024;7.540;2023-05-19T05:43:29;12.30;99.90
15455;DHT22;21057;51.024;7.540;2023-05-19T05:45:57;12.40;99.90
15455;DHT22;21057;51.024;7.540;2023-05-19T05:48:25;12.50;99.90
15455;DHT22;21057;51.024;7.540;2023-05-19T05:50:53;12.60;99.90
15455;DHT22;21057;51.024;7.540;2023-05-19T05:53:24;12.60;99.90
15455;DHT22;21057;51.024;7.540;2023-05-19T05:55:51;12.80;99.90
15455;DHT22;21057;51.024;7.540;2023-05-19T05:58:19;12.90;99.90
15455;DHT22;21057;51.024;7.540;2023-05-19T06:00:46;13.10;99.90
15455;DHT22;21057;51.024;7.540;2023-05-19T06:03:15;13.20;99.90
15455;DHT22;21057;51.024;7.540;2023-05-19T06:05:42;13.30;99.90
15455;DHT22;21057;51.024;7.540;2023-05-19T06:08:09;13.30;99.90
15455;DHT22;21057;51.024;7.540;2023-05-19T06:10:36;13.30;99.90
15455;DHT22;21057;51.024;7.540;2023-05-19T06:13:06;13.50;99.90
15455;DHT22;21057;51.024;7.540;2023-05-19T06:15:32;13.60;99.90
15455;DHT22;21057;51.024;7.540;2023-05-19T06:18:00;13.60;99.90
15455;DHT22;21057;51.024;7.540;2023-05-19T06:20:28;13.80;99.90
15455;DHT22;21057;51.024;7.540;2023-05-19T06:22:55;13.90;99.90
15455;DHT22;21057;51.024;7.540;2023-05-19T06:25:21;13.90;99.90
15455;DHT22;21057;51.024;7.540;2023-05-19T06:27:49;14.00;99.90
15455;DHT22;21057;51.024;7.540;2023-05-19T06:30:16;14.10;99.90
15455;DHT22;21057;51.024;7.540;2023-05-19T06:32:42;14.20;99.90
15455;DHT22;21057;51.024;7.540;2023-05-19T06:35:10;14.20;99.90
15455;DHT22;21057;51.024;7.540;2023-05-19T06:37:38;14.50;99.40
15455;DHT22;21057;51.024;7.540;2023-05-19T06:40:06;14.60;99.10
15455;DHT22;21057;51.024;7.540;2023-05-19T06:42:33;14.50;99.00
15455;DHT22;21057;51.024;7.540;2023-05-19T06:45:00;14.50;99.60
15455;DHT22;21057;51.024;7.540;2023-05-19T06:47:27;14.70;98.80
15455;DHT22;21057;51.024;7.540;2023-05-19T06:49:54;15.00;99.20
15455;DHT22;21057;51.024;7.540;2023-05-19T06:52:21;15.10;97.90
15455;DHT22;21057;51.024;7.540;2023-05-19T06:54:49;15.10;97.90
15455;DHT22;21057;51.024;7.540;2023-05-19T06:57:16;15.20;98.60
15455;DHT22;21057;51.024;7.540;2023-05-19T06:59:43;15.30;98.10
15455;DHT22;21057;51.024;7.540;2023-05-19T07:02:11;15.40;97.80
15455;DHT22;21057;51.024;7.540;2023-05-19T07:04:38;15.60;96.50
15455;DHT22;21057;51.024;7.540;2023-05-19T07:07:05;15.80;95.90
15455;DHT22;21057;51.024;7.540;2023-05-19T07:09:32;15.90;96.80
15455;DHT22;21057;51.024;7.540;2023-05-19T07:12:00;16.10;95.90
15455;DHT22;21057;51.024;7.540;2023-05-19T07:14:27;16.10;95.00
15455;DHT22;21057;51.024;7.540;2023-05-19T07:16:54;16.10;95.30
15455;DHT22;21057;51.024;7.540;2023-05-19T07:19:21;16.30;94.70
15455;DHT22;21057;51.024;7.540;2023-05-19T07:21:48;16.40;94.60
15455;DHT22;21057;51.024;7.540;2023-05-19T07:24:15;16.50;94.10
15455;DHT22;21057;51.024;7.540;2023-05-19T07:26:42;16.50;93.80
15455;DHT22;21057;51.024;7.540;2023-05-19T07:29:10;16.70;94.60
15455;DHT22;21057;51.024;7.540;2023-05-19T07:31:37;16.70;93.70
15455;DHT22;21057;51.024;7.540;2023-05-19T07:34:04;16.90;94.50
15455;DHT22;21057;51.024;7.540;2023-05-19T07:36:31;16.90;94.20
15455;DHT22;21057;51.024;7.540;2023-05-19T07:38:58;17.10;93.30
15455;DHT22;21057;51.024;7.540;2023-05-19T07:41:25;17.10;93.50
15455;DHT22;21057;51.024;7.540;2023-05-19T07:43:52;17.40;92.90
15455;DHT22;21057;51.024;7.540;2023-05-19T07:46:20;17.60;92.80
15455;DHT22;21057;51.024;7.540;2023-05-19T07:48:47;17.60;94.00
15455;DHT22;21057;51.024;7.540;2023-05-19T07:51:14;17.70;92.60
15455;DHT22;21057;51.024;7.540;2023-05-19T07:53:41;17.90;92.50
15455;DHT22;21057;51.024;7.540;2023-05-19T07:56:08;18.10;91.70
15455;DHT22;21057;51.024;7.540;2023-05-19T07:58:34;18.30;92.00
15455;DHT22;21057;51.024;7.540;2023-05-19T08:01:01;18.40;91.50
15455;DHT22;21057;51.024;7.540;2023-05-19T08:03:30;18.50;91.70
15455;DHT22;21057;51.024;7.540;2023-05-19T08:05:56;18.60;91.40
15455;DHT22;21057;51.024;7.540;2023-05-19T08:08:23;18.70;90.40
15455;DHT22;21057;51.024;7.540;2023-05-19T08:10:50;18.90;87.80
15455;DHT22;21057;51.024;7.540;2023-05-19T08:13:17;19.50;89.60
15455;DHT22;21057;51.024;7.540;2023-05-19T08:15:44;19.70;90.20
15455;DHT22;21057;51.024;7.540;2023-05-19T08:18:11;20.00;86.80
15455;DHT22;21057;51.024;7.540;2023-05-19T08:20:39;20.20;86.50
15455;DHT22;21057;51.024;7.540;2023-05-19T08:23:06;20.10;86.30
15455;DHT22;21057;51.024;7.540;2023-05-19T08:25:33;20.50;85.50
15455;DHT22;21057;51.024;7.540;2023-05-19T08:27:59;20.50;80.80
15455;DHT22;21057;51.024;7.540;2023-05-19T08:30:26;20.80;80.40
15455;DHT22;21057;51.024;7.540;2023-05-19T08:32:53;20.80;79.10
15455;DHT22;21057;51.024;7.540;2023-05-19T08:35:20;20.90;79.30
15455;DHT22;21057;51.024;7.540;2023-05-19T08:37:48;21.30;81.30
15455;DHT22;21057;51.024;7.540;2023-05-19T08:40:16;21.20;77.50
15455;DHT22;21057;51.024;7.540;2023-05-19T08:42:43;21.30;77.20
15455;DHT22;21057;51.024;7.540;2023-05-19T08:45:11;21.70;78.10
15455;DHT22;21057;51.024;7.540;2023-05-19T08:47:39;21.80;74.80
15455;DHT22;21057;51.024;7.540;2023-05-19T08:50:07;21.40;72.90
15455;DHT22;21057;51.024;7.540;2023-05-19T08:52:43;21.60;74.30
15455;DHT22;21057;51.024;7.540;2023-05-19T08:55:22;21.80;76.50
15455;DHT22;21057;51.024;7.540;2023-05-19T08:57:52;22.00;73.60
15455;DHT22;21057;51.024;7.540;2023-05-19T09:00:19;22.30;72.30
15455;DHT22;21057;51.024;7.540;2023-05-19T09:02:48;22.70;68.80
15455;DHT22;21057;51.024;7.540;2023-05-19T09:05:16;22.90;67.00
15455;DHT22;21057;51.024;7.540;2023-05-19T09:07:43;22.40;65.60
15455;DHT22;21057;51.024;7.540;2023-05-19T09:10:11;22.60;70.30
15455;DHT22;21057;51.024;7.540;2023-05-19T09:12:42;22.40;66.20
15455;DHT22;21057;51.024;7.540;2023-05-19T09:15:11;22.50;66.90
15455;DHT22;21057;51.024;7.540;2023-05-19T09:17:38;22.80;68.70
15455;DHT22;21057;51.024;7.540;2023-05-19T09:20:06;23.30;66.30
15455;DHT22;21057;51.024;7.540;2023-05-19T09:22:40;23.90;63.70
15455;DHT22;21057;51.024;7.540;2023-05-19T09:25:17;23.60;63.20
15455;DHT22;21057;51.024;7.540;2023-05-19T09:27:46;23.60;62.90
15455;DHT22;21057;51.024;7.540;2023-05-19T09:30:15;23.30;64.30
15455;DHT22;21057;51.024;7.540;2023-05-19T09:32:42;23.50;65.70
15455;DHT22;21057;51.024;7.540;2023-05-19T09:35:10;23.50;61.20
15455;DHT22;21057;51.024;7.540;2023-05-19T09:37:38;23.80;61.40
15455;DHT22;21057;51.024;7.540;2023-05-19T09:40:07;24.00;61.40
15455;DHT22;21057;51.024;7.540;2023-05-19T09:42:36;24.60;61.50
15455;DHT22;21057;51.024;7.540;2023-05-19T09:45:06;24.20;55.80
15455;DHT22;21057;51.024;7.540;2023-05-19T09:47:34;24.30;62.50
15455;DHT22;21057;51.024;7.540;2023-05-19T09:50:03;24.30;57.60
15455;DHT22;21057;51.024;7.540;2023-05-19T09:52:34;24.90;58.90
15455;DHT22;21057;51.024;7.540;2023-05-19T09:55:02;25.40;58.20
15455;DHT22;21057;51.024;7.540;2023-05-19T09:57:33;25.40;58.40
15455;DHT22;21057;51.024;7.540;2023-05-19T10:00:03;25.60;57.90
15455;DHT22;21057;51.024;7.540;2023-05-19T10:02:40;25.80;57.40
15455;DHT22;21057;51.024;7.540;2023-05-19T10:05:09;25.70;51.10
15455;DHT22;21057;51.024;7.540;2023-05-19T10:07:37;25.20;53.10
15455;DHT22;21057;51.024;7.540;2023-05-19T10:10:08;25.20;53.70
15455;DHT22;21057;51.024;7.540;2023-05-19T10:12:38;25.40;55.90
15455;DHT22;21057;51.024;7.540;2023-05-19T10:15:07;25.40;55.20
15455;DHT22;21057;51.024;7.540;2023-05-19T10:17:38;25.70;55.40
15455;DHT22;21057;51.024;7.540;2023-05-19T10:20:08;25.70;55.60
15455;DHT22;21057;51.024;7.540;2023-05-19T10:22:35;26.20;51.50
15455;DHT22;21057;51.024;7.540;2023-05-19T10:25:03;26.50;52.80
15455;DHT22;21057;51.024;7.540;2023-05-19T10:27:32;26.90;53.00
15455;DHT22;21057;51.024;7.540;2023-05-19T10:30:05;26.70;51.00
15455;DHT22;21057;51.024;7.540;2023-05-19T10:32:34;26.60;52.30
15455;DHT22;21057;51.024;7.540;2023-05-19T10:35:23;26.80;53.70
15455;DHT22;21057;51.024;7.540;2023-05-19T10:37:58;27.10;50.90
15455;DHT22;21057;51.024;7.540;2023-05-19T10:40:29;27.10;51.10
15455;DHT22;21057;51.024;7.540;2023-05-19T10:43:12;27.00;50.70
15455;DHT22;21057;51.024;7.540;2023-05-19T10:45:46;26.80;50.80
15455;DHT22;21057;51.024;7.540;2023-05-19T10:48:13;26.90;49.90
15455;DHT22;21057;51.024;7.540;2023-05-19T10:50:44;27.10;46.30
15455;DHT22;21057;51.024;7.540;2023-05-19T10:53:15;27.40;46.00
15455;DHT22;21057;51.024;7.540;2023-05-19T10:55:44;27.30;49.70
15455;DHT22;21057;51.024;7.540;2023-05-19T10:58:13;27.50;49.80
15455;DHT22;21057;51.024;7.540;2023-05-19T11:00:40;27.80;48.60
15455;DHT22;21057;51.024;7.540;2023-05-19T11:03:14;27.50;49.00
15455;DHT22;21057;51.024;7.540;2023-05-19T11:05:41;27.70;48.80
15455;DHT22;21057;51.024;7.540;2023-05-19T11:08:14;27.70;46.90
15455;DHT22;21057;51.024;7.540;2023-05-19T11:10:43;28.00;48.00
15455;DHT22;21057;51.024;7.540;2023-05-19T11:13:18;28.00;43.60
15455;DHT22;21057;51.024;7.540;2023-05-19T11:15:45;27.70;43.90
15455;DHT22;21057;51.024;7.540;2023-05-19T11:18:15;28.00;46.30
15455;DHT22;21057;51.024;7.540;2023-05-19T11:20:42;28.10;45.40
15455;DHT22;21057;51.024;7.540;2023-05-19T11:23:15;28.00;45.60
15455;DHT22;21057;51.024;7.540;2023-05-19T11:25:45;27.90;44.40
15455;DHT22;21057;51.024;7.540;2023-05-19T11:28:15;28.00;43.80
15455;DHT22;21057;51.024;7.540;2023-05-19T11:30:45;28.20;42.50
15455;DHT22;21057;51.024;7.540;2023-05-19T11:33:14;28.70;43.90
15455;DHT22;21057;51.024;7.540;2023-05-19T11:35:44;27.80;46.60
15455;DHT22;21057;51.024;7.540;2023-05-19T11:38:13;28.10;44.00
15455;DHT22;21057;51.024;7.540;2023-05-19T11:40:41;28.10;43.20
15455;DHT22;21057;51.024;7.540;2023-05-19T11:43:08;28.20;46.10
15455;DHT22;21057;51.024;7.540;2023-05-19T11:45:35;28.20;44.50
15455;DHT22;21057;51.024;7.540;2023-05-19T11:48:03;27.50;44.20
15455;DHT22;21057;51.024;7.540;2023-05-19T11:50:30;28.20;47.60
15455;DHT22;21057;51.024;7.540;2023-05-19T11:52:59;27.90;39.60
15455;DHT22;21057;51.024;7.540;2023-05-19T11:55:26;28.10;43.80
15455;DHT22;21057;51.024;7.540;2023-05-19T11:57:58;28.20;45.10
15455;DHT22;21057;51.024;7.540;2023-05-19T12:00:25;28.30;44.00
15455;DHT22;21057;51.024;7.540;2023-05-19T12:02:52;28.20;44.80
15455;DHT22;21057;51.024;7.540;2023-05-19T12:05:20;28.10;45.60
15455;DHT22;21057;51.024;7.540;2023-05-19T12:07:48;28.30;44.70
15455;DHT22;21057;51.024;7.540;2023-05-19T12:10:16;28.50;43.10
15455;DHT22;21057;51.024;7.540;2023-05-19T12:12:44;28.70;43.30
15455;DHT22;21057;51.024;7.540;2023-05-19T12:15:13;27.70;40.80
15455;DHT22;21057;51.024;7.540;2023-05-19T12:17:41;27.80;44.80
15455;DHT22;21057;51.024;7.540;2023-05-19T12:20:09;28.50;45.20
15455;DHT22;21057;51.024;7.540;2023-05-19T12:22:36;28.70;44.90
15455;DHT22;21057;51.024;7.540;2023-05-19T12:25:04;28.70;42.90
15455;DHT22;21057;51.024;7.540;2023-05-19T12:27:36;28.90;42.80
15455;DHT22;21057;51.024;7.540;2023-05-19T12:30:04;28.80;43.90
15455;DHT22;21057;51.024;7.540;2023-05-19T12:32:33;28.90;41.60
15455;DHT22;21057;51.024;7.540;2023-05-19T12:35:02;29.30;43.40
15455;DHT22;21057;51.024;7.540;2023-05-19T12:37:30;28.80;38.20
15455;DHT22;21057;51.024;7.540;2023-05-19T12:39:58;28.80;42.20
15455;DHT22;21057;51.024;7.540;2023-05-19T12:42:26;29.20;42.30
15455;DHT22;21057;51.024;7.540;2023-05-19T12:44:57;29.30;42.40
15455;DHT22;21057;51.024;7.540;2023-05-19T12:47:29;29.30;39.00
15455;DHT22;21057;51.024;7.540;2023-05-19T12:50:02;29.20;41.60
15455;DHT22;21057;51.024;7.540;2023-05-19T12:52:31;29.50;41.30
15455;DHT22;21057;51.024;7.540;2023-05-19T12:55:00;29.50;39.80
15455;DHT22;21057;51.024;7.540;2023-05-19T12:57:29;29.20;41.30
15455;DHT22;21057;51.024;7.540;2023-05-19T13:00:01;29.00;40.20
15455;DHT22;21057;51.024;7.540;2023-05-19T13:02:35;28.90;43.50
15455;DHT22;21057;51.024;7.540;2023-05-19T13:05:10;28.70;39.90
15455;DHT22;21057;51.024;7.540;2023-05-19T13:07:38;28.60;40.00
15455;DHT22;21057;51.024;7.540;2023-05-19T13:10:06;28.60;41.90
15455;DHT22;21057;51.024;7.540;2023-05-19T13:12:33;28.80;42.00
15455;DHT22;21057;51.024;7.540;2023-05-19T13:15:00;28.70;41.00
15455;DHT22;21057;51.024;7.540;2023-05-19T13:17:26;28.90;41.20
15455;DHT22;21057;51.024;7.540;2023-05-19T13:19:53;29.00;41.90
15455;DHT22;21057;51.024;7.540;2023-05-19T13:22:21;28.70;42.00
15455;DHT22;21057;51.024;7.540;2023-05-19T13:24:48;28.90;40.70
15455;DHT22;21057;51.024;7.540;2023-05-19T13:27:19;28.80;41.40
15455;DHT22;21057;51.024;7.540;2023-05-19T13:29:47;28.90;41.90
15455;DHT22;21057;51.024;7.540;2023-05-19T13:32:14;29.00;39.00
15455;DHT22;21057;51.024;7.540;2023-05-19T13:34:41;29.00;38.50
15455;DHT22;21057;51.024;7.540;2023-05-19T13:37:07;28.90;40.60
15455;DHT22;21057;51.024;7.540;2023-05-19T13:39:37;28.80;40.00
15455;DHT22;21057;51.024;7.540;2023-05-19T13:42:05;28.40;41.30
15455;DHT22;21057;51.024;7.540;2023-05-19T13:44:32;28.60;41.20
15455;DHT22;21057;51.024;7.540;2023-05-19T13:46:59;29.00;42.30
15455;DHT22;21057;51.024;7.540;2023-05-19T13:49:25;29.20;39.40
15455;DHT22;21057;51.024;7.540;2023-05-19T13:51:55;29.10;41.30
15455;DHT22;21057;51.024;7.540;2023-05-19T13:54:22;29.00;39.20
15455;DHT22;21057;51.024;7.540;2023-05-19T13:56:50;28.90;40.10
15455;DHT22;21057;51.024;7.540;2023-05-19T13:59:17;28.40;39.50
15455;DHT22;21057;51.024;7.540;2023-05-19T14:01:45;28.20;39.80
15455;DHT22;21057;51.024;7.540;2023-05-19T14:04:14;28.10;42.20
15455;DHT22;21057;51.024;7.540;2023-05-19T14:06:41;27.90;41.20
15455;DHT22;21057;51.024;7.540;2023-05-19T14:09:08;28.20;41.70
15455;DHT22;21057;51.024;7.540;2023-05-19T14:11:35;28.30;42.70
15455;DHT22;21057;51.024;7.540;2023-05-19T14:14:03;28.30;42.00
15455;DHT22;21057;51.024;7.540;2023-05-19T14:16:30;28.40;41.60
15455;DHT22;21057;51.024;7.540;2023-05-19T14:18:57;28.40;42.30
15455;DHT22;21057;51.024;7.540;2023-05-19T14:21:24;28.40;42.20
15455;DHT22;21057;51.024;7.540;2023-05-19T14:23:51;28.50;41.90
15455;DHT22;21057;51.024;7.540;2023-05-19T14:26:18;28.50;40.90
15455;DHT22;21057;51.024;7.540;2023-05-19T14:28:46;28.30;40.80
15455;DHT22;21057;51.024;7.540;2023-05-19T14:31:14;28.00;41.90
15455;DHT22;21057;51.024;7.540;2023-05-19T14:33:41;27.80;43.50
15455;DHT22;21057;51.024;7.540;2023-05-19T14:36:08;27.60;43.40
15455;DHT22;21057;51.024;7.540;2023-05-19T14:38:35;27.00;42.40
15455;DHT22;21057;51.024;7.540;2023-05-19T14:41:03;27.00;44.50
15455;DHT22;21057;51.024;7.540;2023-05-19T14:43:30;27.20;44.40
15455;DHT22;21057;51.024;7.540;2023-05-19T14:45:56;27.20;44.30
15455;DHT22;21057;51.024;7.540;2023-05-19T14:48:25;27.00;44.30
15455;DHT22;21057;51.024;7.540;2023-05-19T14:50:52;26.40;44.20
15455;DHT22;21057;51.024;7.540;2023-05-19T14:53:19;25.90;44.40
15455;DHT22;21057;51.024;7.540;2023-05-19T14:55:46;26.00;45.80
15455;DHT22;21057;51.024;7.540;2023-05-19T14:58:14;26.30;45.10
15455;DHT22;21057;51.024;7.540;2023-05-19T15:00:41;26.00;45.00
15455;DHT22;21057;51.024;7.540;2023-05-19T15:03:08;25.60;44.50
15455;DHT22;21057;51.024;7.540;2023-05-19T15:05:37;25.20;45.20
15455;DHT22;21057;51.024;7.540;2023-05-19T15:08:05;25.10;46.10
15455;DHT22;21057;51.024;7.540;2023-05-19T15:10:32;25.30;48.60
15455;DHT22;21057;51.024;7.540;2023-05-19T15:13:00;25.80;46.30
15455;DHT22;21057;51.024;7.540;2023-05-19T15:15:26;25.80;46.30
15455;DHT22;21057;51.024;7.540;2023-05-19T15:17:53;25.40;46.90
15455;DHT22;21057;51.024;7.540;2023-05-19T15:20:20;25.00;46.30
15455;DHT22;21057;51.024;7.540;2023-05-19T15:22:48;25.10;47.00
15455;DHT22;21057;51.024;7.540;2023-05-19T15:25:15;24.90;47.20
15455;DHT22;21057;51.024;7.540;2023-05-19T15:27:42;24.40;47.50
15455;DHT22;21057;51.024;7.540;2023-05-19T15:30:09;23.70;48.90
15455;DHT22;21057;51.024;7.540;2023-05-19T15:32:36;23.40;48.80
15455;DHT22;21057;51.024;7.540;2023-05-19T15:35:04;23.60;50.70
15455;DHT22;21057;51.024;7.540;2023-05-19T15:37:31;23.70;50.50
15455;DHT22;21057;51.024;7.540;2023-05-19T15:39:59;24.00;48.90
15455;DHT22;21057;51.024;7.540;2023-05-19T15:42:26;24.40;48.40